Time;durP1;ratioP1;P1;durP2;ratioP2;P2;SDS_P1;SDS_P2;PMS_P1;PMS_P2;Temp;Humidity;BMP_temperature;BMP_pressure;BME280_temperature;BME280_humidity;BME280_pressure;Samples;Min_cycle;Max_cycle;Signal;HPM_P1;HPM_P2
2022/11/03 00:01:02;;;;;;;3.90;3.20;;;10.40;99.90;;;;;;5021539;28;20097;-75
2022/11/03 00:03:27;;;;;;;6.70;3.05;;;10.30;99.90;;;;;;5033247;28;20461;-75
2022/11/03 00:06:06;;;;;;;4.70;3.78;;;10.30;99.90;;;;;;5016294;28;20752;-75
2022/11/03 00:08:33;;;;;;;10.68;3.83;;;10.20;99.90;;;;;;5015546;28;20516;-75
2022/11/03 00:11:04;;;;;;;4.00;3.10;;;10.20;99.90;;;;;;5015819;28;20104;-75
2022/11/03 00:13:29;;;;;;;3.55;2.88;;;10.10;99.90;;;;;;5022175;28;20045;-75
2022/11/03 00:15:55;;;;;;;11.55;3.40;;;10.10;99.90;;;;;;5015893;28;20044;-75
2022/11/03 00:18:21;;;;;;;5.75;3.63;;;10.10;99.90;;;;;;5021495;28;20092;-75
2022/11/03 00:20:56;;;;;;;4.35;2.70;;;10.10;99.90;;;;;;5015999;28;20072;-75
2022/11/03 00:23:23;;;;;;;6.53;3.10;;;10.10;99.90;;;;;;5028860;28;20029;-75
2022/11/03 00:25:49;;;;;;;5.32;3.15;;;10.00;99.90;;;;;;5014827;28;20025;-75
2022/11/03 00:28:14;;;;;;;7.88;3.20;;;10.10;99.90;;;;;;5026656;28;20026;-75
2022/11/03 00:30:40;;;;;;;5.90;2.90;;;10.10;99.90;;;;;;5018212;28;20017;-75
2022/11/03 00:33:06;;;;;;;3.88;2.70;;;10.20;99.90;;;;;;5024718;28;20025;-75
2022/11/03 00:35:32;;;;;;;4.68;3.05;;;10.20;99.90;;;;;;5014339;28;20030;-75
2022/11/03 00:37:58;;;;;;;7.82;3.08;;;10.30;99.90;;;;;;5021898;28;20021;-75
2022/11/03 00:40:24;;;;;;;4.63;3.13;;;10.40;99.90;;;;;;5011792;28;20045;-75
2022/11/03 00:42:50;;;;;;;4.22;3.17;;;10.50;99.90;;;;;;5020646;28;20100;-75
2022/11/03 00:45:15;;;;;;;7.88;3.38;;;10.60;99.90;;;;;;5016319;28;20390;-75
2022/11/03 00:48:28;;;;;;;4.18;2.67;;;10.70;99.90;;;;;;5019328;28;20029;-75
2022/11/03 00:50:27;;;;;;;4.93;2.90;;;10.80;99.90;;;;;;5015281;28;20033;-75
2022/11/03 00:52:53;;;;;;;4.35;2.88;;;10.90;99.90;;;;;;5016058;28;20455;-75
2022/11/03 00:55:19;;;;;;;5.63;3.28;;;10.90;99.90;;;;;;5018901;28;20053;-75
2022/11/03 00:57:45;;;;;;;8.02;3.22;;;11.10;99.90;;;;;;5031208;28;20029;-76
2022/11/03 01:00:11;;;;;;;3.97;2.83;;;11.10;99.90;;;;;;5023902;28;20395;-75
2022/11/03 01:02:37;;;;;;;8.25;3.08;;;11.20;99.90;;;;;;5027048;28;20371;-75
2022/11/03 01:07:47;;;;;;;5.80;3.40;;;11.30;99.90;;;;;;5028800;28;20048;-76
2022/11/03 01:10:13;;;;;;;3.92;2.67;;;11.40;99.90;;;;;;5024707;28;20022;-75
2022/11/03 01:12:39;;;;;;;4.55;2.60;;;11.50;99.90;;;;;;5025984;28;20034;-76
2022/11/03 01:15:05;;;;;;;7.97;2.90;;;11.60;99.90;;;;;;5021931;28;20030;-75
2022/11/03 01:17:31;;;;;;;3.92;2.78;;;11.70;99.90;;;;;;5023198;28;20022;-76
2022/11/03 01:19:56;;;;;;;5.93;2.83;;;11.70;99.90;;;;;;5014302;28;20502;-76
2022/11/03 01:22:23;;;;;;;3.10;2.42;;;11.80;99.90;;;;;;5017097;28;20080;-76
2022/11/03 01:24:50;;;;;;;3.42;2.67;;;11.80;99.90;;;;;;5011535;28;20058;-76
2022/11/03 01:27:18;;;;;;;4.28;2.70;;;11.90;99.90;;;;;;5025913;28;20500;-75
2022/11/03 01:29:44;;;;;;;6.28;3.00;;;12.00;99.90;;;;;;5020546;28;20041;-76
2022/11/03 01:32:11;;;;;;;3.90;2.60;;;12.00;99.90;;;;;;5025713;28;20030;-76
2022/11/03 01:34:38;;;;;;;6.15;2.63;;;12.00;99.90;;;;;;5021789;28;20030;-75
2022/11/03 01:37:04;;;;;;;4.05;2.65;;;12.10;99.90;;;;;;5021711;28;20029;-76
2022/11/03 01:39:30;;;;;;;6.82;2.50;;;12.10;99.90;;;;;;5021007;28;20077;-75
2022/11/03 01:41:56;;;;;;;6.85;2.70;;;12.10;99.90;;;;;;5021662;28;20025;-76
2022/11/03 01:44:21;;;;;;;7.00;2.80;;;12.20;99.90;;;;;;5024082;28;20029;-75
2022/11/03 01:46:57;;;;;;;8.88;2.97;;;12.10;99.90;;;;;;5020630;28;20489;-75
2022/11/03 01:49:38;;;;;;;4.97;2.70;;;12.20;99.90;;;;;;5021666;28;20029;-75
2022/11/03 01:52:13;;;;;;;6.85;2.90;;;12.20;99.90;;;;;;5021756;28;20112;-75
2022/11/03 01:54:42;;;;;;;2.90;2.38;;;12.20;99.90;;;;;;5018997;28;20022;-77
2022/11/03 01:57:14;;;;;;;7.55;3.00;;;12.20;99.90;;;;;;5030828;28;20018;-76
2022/11/03 01:59:41;;;;;;;5.63;3.13;;;12.30;99.90;;;;;;5030166;28;20024;-75
2022/11/03 02:02:07;;;;;;;5.53;3.15;;;12.40;99.90;;;;;;5029069;28;20028;-76
2022/11/03 02:04:34;;;;;;;5.93;3.15;;;12.40;99.90;;;;;;5026863;28;20057;-75
2022/11/03 02:07:12;;;;;;;8.65;3.38;;;12.40;99.90;;;;;;5026737;28;20040;-76
2022/11/03 02:09:38;;;;;;;7.70;2.55;;;12.50;99.90;;;;;;5025332;28;20030;-76
2022/11/03 02:12:07;;;;;;;7.57;3.25;;;12.50;99.90;;;;;;5026113;28;20044;-77
2022/11/03 02:14:42;;;;;;;11.50;3.00;;;12.50;99.90;;;;;;5020473;28;20093;-75
2022/11/03 02:17:12;;;;;;;6.13;2.80;;;12.60;99.90;;;;;;5023548;28;20030;-75
2022/11/03 02:19:54;;;;;;;7.22;2.97;;;12.60;99.90;;;;;;5014667;28;20023;-76
2022/11/03 02:22:36;;;;;;;7.05;3.25;;;12.70;99.90;;;;;;5028130;28;20017;-76
2022/11/03 02:25:47;;;;;;;4.57;2.58;;;12.70;99.90;;;;;;5017759;28;20486;-75
2022/11/03 02:28:19;;;;;;;8.82;3.08;;;12.70;99.90;;;;;;5010675;28;20031;-76
2022/11/03 02:30:57;;;;;;;5.82;2.70;;;12.70;99.90;;;;;;5017471;28;20037;-76
2022/11/03 02:33:48;;;;;;;9.68;4.47;;;12.70;99.90;;;;;;5026565;28;20395;-75
2022/11/03 02:36:27;;;;;;;5.63;3.03;;;12.70;99.90;;;;;;5020389;28;20038;-76
2022/11/03 02:39:04;;;;;;;8.13;3.78;;;12.80;99.90;;;;;;5021830;28;20026;-75
2022/11/03 02:41:34;;;;;;;11.50;3.60;;;12.90;99.90;;;;;;5017686;28;20033;-77
2022/11/03 02:44:00;;;;;;;9.68;3.30;;;13.00;99.90;;;;;;5021176;28;20100;-76
2022/11/03 02:46:29;;;;;;;8.52;3.05;;;13.00;99.90;;;;;;5018512;28;20030;-75
2022/11/03 02:48:56;;;;;;;12.40;3.00;;;13.10;99.90;;;;;;5025873;28;20025;-75
2022/11/03 02:51:25;;;;;;;9.20;3.25;;;13.00;99.90;;;;;;5010747;28;20025;-77
2022/11/03 02:54:06;;;;;;;6.10;3.28;;;13.10;99.90;;;;;;5026476;28;20105;-76
2022/11/03 02:56:38;;;;;;;9.23;3.50;;;13.20;99.90;;;;;;5018154;28;20056;-76
2022/11/03 02:59:08;;;;;;;8.18;3.55;;;13.30;99.90;;;;;;5029306;28;20015;-76
2022/11/03 03:01:45;;;;;;;8.63;3.60;;;13.30;99.90;;;;;;5025111;28;20030;-74
2022/11/03 03:04:16;;;;;;;7.45;3.55;;;13.50;99.90;;;;;;5025267;28;20030;-75
2022/11/03 03:06:48;;;;;;;7.88;2.70;;;13.50;99.90;;;;;;5027139;28;20397;-75
2022/11/03 03:09:28;;;;;;;7.20;3.55;;;13.60;99.90;;;;;;5023021;28;20026;-76
2022/11/03 03:11:57;;;;;;;11.10;4.25;;;13.50;99.90;;;;;;5025153;28;20025;-74
2022/11/03 03:14:40;;;;;;;6.53;2.80;;;13.50;99.90;;;;;;5018795;28;20050;-75
2022/11/03 03:17:15;;;;;;;10.93;3.25;;;13.50;99.90;;;;;;5034530;28;20168;-75
2022/11/03 03:19:53;;;;;;;4.47;3.20;;;13.50;99.90;;;;;;5012124;28;20030;-77
2022/11/03 03:22:24;;;;;;;10.05;3.47;;;13.60;99.90;;;;;;5028494;28;20381;-75
2022/11/03 03:25:13;;;;;;;12.65;4.43;;;13.60;99.90;;;;;;5018566;28;20058;-74
2022/11/03 03:27:43;;;;;;;9.88;3.08;;;13.70;99.90;;;;;;5024362;28;20048;-74
2022/11/03 03:30:10;;;;;;;7.75;3.40;;;13.80;99.90;;;;;;5013974;28;20058;-77
2022/11/03 03:32:40;;;;;;;6.35;3.47;;;13.80;99.90;;;;;;5027065;28;20040;-75
2022/11/03 03:35:09;;;;;;;8.13;4.03;;;13.80;99.90;;;;;;5016653;28;20512;-76
2022/11/03 03:37:40;;;;;;;10.05;3.65;;;13.80;99.90;;;;;;5025670;28;20022;-75
2022/11/03 03:40:10;;;;;;;8.02;3.88;;;13.80;99.90;;;;;;5014909;28;20061;-76
2022/11/03 03:42:37;;;;;;;6.03;3.50;;;13.80;99.90;;;;;;5023570;28;20017;-77
2022/11/03 03:45:06;;;;;;;8.35;3.53;;;13.80;99.90;;;;;;5017713;28;20030;-76
2022/11/03 03:47:34;;;;;;;13.15;3.95;;;13.80;99.90;;;;;;5020787;28;20022;-74
2022/11/03 03:50:00;;;;;;;8.98;4.05;;;13.80;99.90;;;;;;5017020;28;20033;-76
2022/11/03 03:52:28;;;;;;;10.18;3.75;;;13.80;99.90;;;;;;5016767;28;20064;-75
2022/11/03 03:54:54;;;;;;;10.45;3.80;;;13.90;99.90;;;;;;5013160;28;20026;-75
2022/11/03 03:57:23;;;;;;;11.27;3.58;;;14.00;99.90;;;;;;5024362;28;20633;-75
2022/11/03 03:59:49;;;;;;;4.22;3.60;;;14.00;99.90;;;;;;5028530;28;20021;-75
2022/11/03 04:02:15;;;;;;;7.57;4.13;;;14.00;99.90;;;;;;5027015;28;20028;-75
2022/11/03 04:04:41;;;;;;;7.50;3.95;;;13.90;99.90;;;;;;5025146;28;20029;-75
2022/11/03 04:09:52;;;;;;;4.80;3.67;;;14.00;99.90;;;;;;5022704;28;20093;-75
2022/11/03 04:23:18;;;;;;;9.63;3.72;;;14.00;99.90;;;;;;5023978;28;20079;-76
2022/11/03 04:25:50;;;;;;;7.28;3.40;;;14.10;99.90;;;;;;5016028;28;20067;-75
2022/11/03 04:28:16;;;;;;;10.93;4.00;;;14.10;99.90;;;;;;5021829;28;20487;-75
2022/11/03 04:30:42;;;;;;;9.65;3.65;;;14.00;99.90;;;;;;5018943;28;20033;-77
2022/11/03 04:33:19;;;;;;;5.43;3.60;;;14.00;99.90;;;;;;5025843;28;20029;-76
2022/11/03 04:35:46;;;;;;;7.25;3.15;;;14.00;99.90;;;;;;5016874;28;20056;-75
2022/11/03 04:38:12;;;;;;;7.55;3.35;;;14.10;99.90;;;;;;5023852;28;20026;-76
2022/11/03 04:40:46;;;;;;;13.00;4.03;;;14.00;99.90;;;;;;5017710;28;20037;-76
2022/11/03 04:43:18;;;;;;;13.23;3.25;;;14.00;99.90;;;;;;5021467;28;20026;-76
2022/11/03 04:45:45;;;;;;;7.28;3.03;;;14.10;99.90;;;;;;5017926;28;20041;-76
2022/11/03 04:48:14;;;;;;;6.25;3.85;;;14.00;99.90;;;;;;5019861;28;20560;-74
2022/11/03 04:50:41;;;;;;;10.93;3.83;;;14.00;99.90;;;;;;5016384;28;20030;-75
2022/11/03 04:53:13;;;;;;;9.75;4.55;;;14.00;99.90;;;;;;5018004;28;20450;-75
2022/11/03 04:55:43;;;;;;;10.48;4.35;;;14.10;99.90;;;;;;5015400;28;20398;-74
2022/11/03 04:58:20;;;;;;;8.45;4.40;;;14.00;99.90;;;;;;5035495;28;20014;-74
2022/11/03 05:00:50;;;;;;;6.72;3.92;;;14.10;99.90;;;;;;5020005;28;20033;-76
2022/11/03 05:03:34;;;;;;;8.93;4.17;;;14.10;99.90;;;;;;5025868;28;20033;-75
2022/11/03 05:06:25;;;;;;;8.15;4.07;;;14.10;99.90;;;;;;5019073;28;20033;-75
2022/11/03 05:08:54;;;;;;;;;;;14.00;99.90;;;;;;5027088;28;20040;-77
2022/11/03 05:11:37;;;;;;;8.85;4.05;;;14.10;99.90;;;;;;5019203;28;19906;-76
2022/11/03 05:14:25;;;;;;;10.90;4.30;;;14.10;99.90;;;;;;5020195;28;20050;-75
2022/11/03 05:16:52;;;;;;;7.85;4.30;;;14.00;99.90;;;;;;5020612;28;20022;-76
2022/11/03 05:19:24;;;;;;;10.35;3.85;;;13.90;99.90;;;;;;5013462;28;20521;-75
2022/11/03 05:21:51;;;;;;;8.40;4.88;;;14.00;99.90;;;;;;5016283;28;20088;-76
2022/11/03 05:24:19;;;;;;;8.45;4.53;;;14.00;99.90;;;;;;5025433;28;20030;-74
2022/11/03 05:26:47;;;;;;;11.85;4.10;;;14.10;99.90;;;;;;5051000;28;20564;-76
2022/11/03 05:29:22;;;;;;;14.88;4.78;;;14.10;99.90;;;;;;5023053;28;20040;-76
2022/11/03 05:31:52;;;;;;;14.43;4.20;;;14.10;99.90;;;;;;5020502;28;20026;-77
2022/11/03 05:34:30;;;;;;;11.35;4.95;;;14.20;99.90;;;;;;5009749;28;20021;-77
2022/11/03 05:37:19;;;;;;;9.65;3.80;;;14.20;99.90;;;;;;5013644;28;20034;-76
2022/11/03 05:39:48;;;;;;;9.18;4.20;;;14.20;99.90;;;;;;5010195;28;20038;-76
2022/11/03 05:42:30;;;;;;;10.10;4.72;;;14.30;99.90;;;;;;5012988;28;20487;-76
2022/11/03 05:44:57;;;;;;;7.57;4.05;;;14.20;99.90;;;;;;5009733;28;20652;-75
2022/11/03 05:47:38;;;;;;;11.45;5.25;;;14.20;99.90;;;;;;5011995;28;20026;-77
2022/11/03 05:50:21;;;;;;;8.63;4.43;;;14.30;99.90;;;;;;5010307;28;20494;-76
2022/11/03 05:52:50;;;;;;;9.02;4.22;;;14.30;99.90;;;;;;5020424;28;20022;-75
2022/11/03 05:55:26;;;;;;;15.15;4.65;;;14.30;99.90;;;;;;5014051;28;20033;-76
2022/11/03 05:57:56;;;;;;;6.57;4.50;;;14.30;99.90;;;;;;5018319;28;20077;-75
2022/11/03 06:00:36;;;;;;;10.57;4.10;;;14.30;99.90;;;;;;5013878;28;20496;-76
2022/11/03 06:03:03;;;;;;;8.50;4.10;;;14.40;99.90;;;;;;5017079;28;20123;-76
2022/11/03 06:05:31;;;;;;;9.10;4.80;;;14.40;99.90;;;;;;5013194;28;20062;-77
2022/11/03 06:08:01;;;;;;;12.32;4.85;;;14.40;99.90;;;;;;5021275;28;20026;-75
2022/11/03 06:10:49;;;;;;;11.25;4.35;;;14.40;99.90;;;;;;5007118;28;20037;-78
2022/11/03 06:13:26;;;;;;;8.10;4.00;;;14.50;99.90;;;;;;5035887;28;20533;-78
2022/11/03 06:15:57;;;;;;;13.20;5.30;;;14.50;99.90;;;;;;5016983;28;20033;-77
2022/11/03 06:18:29;;;;;;;7.32;3.78;;;14.40;99.90;;;;;;5019614;28;20050;-78
2022/11/03 06:21:07;;;;;;;10.88;4.68;;;14.40;99.90;;;;;;5023118;28;20053;-79
2022/11/03 06:23:35;;;;;;;11.45;4.75;;;14.40;99.90;;;;;;5032507;28;20029;-78
2022/11/03 06:26:02;;;;;;;7.55;4.88;;;14.40;99.90;;;;;;5019403;28;20022;-77
2022/11/03 06:28:35;;;;;;;7.15;4.00;;;14.40;99.90;;;;;;5029704;28;20030;-78
2022/11/03 06:31:03;;;;;;;9.80;4.85;;;14.50;99.90;;;;;;5019860;28;20037;-78
2022/11/03 06:33:33;;;;;;;16.90;4.55;;;14.50;99.90;;;;;;5027765;28;20460;-79
2022/11/03 06:36:12;;;;;;;9.50;4.63;;;14.50;99.90;;;;;;5020713;28;20090;-77
2022/11/03 06:38:38;;;;;;;8.18;4.55;;;14.50;99.90;;;;;;5024913;28;20049;-78
2022/11/03 06:41:04;;;;;;;9.55;4.45;;;14.60;99.90;;;;;;5025274;28;20022;-78
2022/11/03 06:43:40;;;;;;;14.88;4.28;;;14.50;99.90;;;;;;5023468;28;20072;-77
2022/11/03 06:46:18;;;;;;;10.48;4.57;;;14.50;99.90;;;;;;5014930;28;20364;-77
2022/11/03 06:48:43;;;;;;;7.35;4.15;;;14.60;99.90;;;;;;5018912;28;20430;-77
2022/11/03 06:51:19;;;;;;;9.32;4.10;;;14.50;99.90;;;;;;5019558;28;20018;-77
2022/11/03 06:53:46;;;;;;;7.68;4.20;;;14.60;99.90;;;;;;5024650;28;20117;-78
2022/11/03 06:56:14;;;;;;;8.57;4.55;;;14.60;99.90;;;;;;5028889;28;20022;-78
2022/11/03 06:58:40;;;;;;;9.70;4.57;;;14.60;99.90;;;;;;5020529;28;20026;-80
2022/11/03 07:01:20;;;;;;;12.65;4.72;;;14.60;99.90;;;;;;5017046;28;20026;-79
2022/11/03 07:03:46;;;;;;;12.43;4.55;;;14.70;99.90;;;;;;5023118;28;20474;-77
2022/11/03 07:06:26;;;;;;;8.48;4.30;;;14.70;99.90;;;;;;5019972;28;20022;-77
2022/11/03 07:09:00;;;;;;;12.90;5.72;;;14.70;99.90;;;;;;5020420;28;20026;-78
2022/11/03 07:11:41;;;;;;;12.02;4.07;;;14.70;99.90;;;;;;5015589;28;20291;-78
2022/11/03 07:14:13;;;;;;;15.75;4.50;;;14.70;99.90;;;;;;5008776;28;20113;-78
2022/11/03 07:16:52;;;;;;;17.60;5.18;;;14.70;99.90;;;;;;5015704;28;20057;-80
2022/11/03 07:19:28;;;;;;;11.15;4.38;;;14.70;99.90;;;;;;5014698;28;20021;-80
2022/11/03 07:22:01;;;;;;;10.13;4.38;;;14.70;99.90;;;;;;5022754;28;20486;-79
2022/11/03 07:24:29;;;;;;;10.98;4.50;;;14.70;99.90;;;;;;5024444;28;20023;-77
2022/11/03 07:27:05;;;;;;;10.10;4.30;;;14.70;99.90;;;;;;5016716;28;20107;-80
2022/11/03 07:29:31;;;;;;;9.25;4.47;;;14.70;99.90;;;;;;5027540;28;20058;-78
2022/11/03 07:31:59;;;;;;;8.07;4.10;;;14.70;99.90;;;;;;5035024;28;20112;-79
2022/11/03 07:34:30;;;;;;;8.10;4.93;;;14.70;99.90;;;;;;5028829;28;20506;-77
2022/11/03 07:36:57;;;;;;;10.57;5.15;;;14.70;99.90;;;;;;5032962;28;20030;-77
2022/11/03 07:39:25;;;;;;;16.13;5.72;;;14.80;99.90;;;;;;5014374;28;20015;-81
2022/11/03 07:41:52;;;;;;;14.52;5.10;;;14.80;99.90;;;;;;5016200;28;20513;-77
2022/11/03 07:44:21;;;;;;;11.40;5.78;;;14.90;99.90;;;;;;5019322;28;20394;-78
2022/11/03 07:46:48;;;;;;;15.10;5.03;;;14.90;99.90;;;;;;5019268;28;20458;-79
2022/11/03 07:49:26;;;;;;;13.05;4.63;;;14.90;99.90;;;;;;5017922;28;20498;-78
2022/11/03 07:51:54;;;;;;;10.25;4.72;;;14.90;99.90;;;;;;5018827;28;20056;-79
2022/11/03 07:54:32;;;;;;;11.02;4.90;;;14.90;99.90;;;;;;5021622;28;20108;-77
2022/11/03 07:57:10;;;;;;;15.93;4.75;;;15.00;99.90;;;;;;5024999;28;20087;-77
2022/11/03 07:59:45;;;;;;;14.85;5.00;;;15.00;99.90;;;;;;5014732;28;20459;-77
2022/11/03 08:02:57;;;;;;;8.27;4.28;;;15.10;99.90;;;;;;5024191;28;20084;-78
2022/11/03 08:05:23;;;;;;;13.27;4.55;;;15.10;99.90;;;;;;5015093;28;20069;-78
2022/11/03 08:07:49;;;;;;;11.57;4.90;;;15.10;99.90;;;;;;5016718;28;20034;-79
2022/11/03 08:10:14;;;;;;;13.48;4.70;;;15.20;99.90;;;;;;5010913;28;20033;-78
2022/11/03 08:12:40;;;;;;;11.02;5.00;;;15.20;99.90;;;;;;5023424;28;20029;-77
2022/11/03 08:15:06;;;;;;;10.32;4.90;;;15.30;99.90;;;;;;5029119;28;20038;-77
2022/11/03 08:17:32;;;;;;;14.40;5.38;;;15.30;99.90;;;;;;5014544;28;20497;-77
2022/11/03 08:19:58;;;;;;;11.82;4.93;;;15.30;99.90;;;;;;5011393;28;20030;-80
2022/11/03 08:22:24;;;;;;;9.43;5.65;;;15.30;99.90;;;;;;5017313;28;20018;-77
2022/11/03 08:24:51;;;;;;;9.85;4.50;;;15.40;99.90;;;;;;5013685;28;20034;-78
2022/11/03 08:27:18;;;;;;;10.35;4.90;;;15.40;99.90;;;;;;5028355;28;20111;-79
2022/11/03 08:29:44;;;;;;;8.23;5.40;;;15.50;99.90;;;;;;5019440;28;20479;-80
2022/11/03 08:32:10;;;;;;;12.85;4.45;;;15.50;99.90;;;;;;5018716;28;20057;-77
2022/11/03 08:34:36;;;;;;;14.73;5.38;;;15.60;99.90;;;;;;5016930;28;20072;-78
2022/11/03 08:37:02;;;;;;;13.10;5.00;;;15.60;99.90;;;;;;5020544;28;20017;-77
2022/11/03 08:39:30;;;;;;;10.95;4.80;;;15.60;99.90;;;;;;5024064;28;20038;-79
2022/11/03 08:41:55;;;;;;;14.27;5.03;;;15.60;99.90;;;;;;5018903;28;20021;-79
2022/11/03 08:44:21;;;;;;;14.07;4.80;;;15.60;99.90;;;;;;5019414;28;20041;-78
2022/11/03 08:46:47;;;;;;;13.98;5.65;;;15.70;99.90;;;;;;5028694;28;20032;-78
2022/11/03 08:49:13;;;;;;;12.30;4.88;;;15.60;99.90;;;;;;5024475;28;20038;-79
2022/11/03 08:51:39;;;;;;;17.65;5.10;;;15.70;99.90;;;;;;5024529;28;20036;-77
2022/11/03 08:54:04;;;;;;;7.80;4.43;;;15.70;99.90;;;;;;5023731;28;20140;-77
2022/11/03 08:56:30;;;;;;;11.43;4.97;;;15.80;99.90;;;;;;5020790;28;20018;-77
2022/11/03 08:58:56;;;;;;;10.18;4.85;;;15.90;99.90;;;;;;5037356;28;20041;-78
2022/11/03 09:01:22;;;;;;;11.57;5.00;;;15.90;99.90;;;;;;5023569;28;20025;-77
2022/11/03 09:03:48;;;;;;;9.73;4.95;;;16.00;99.90;;;;;;5020486;28;20036;-77
2022/11/03 09:06:13;;;;;;;12.32;4.80;;;16.00;99.90;;;;;;5026005;28;20033;-77
2022/11/03 09:08:39;;;;;;;23.38;5.93;;;16.10;99.90;;;;;;5017113;28;20026;-76
2022/11/03 09:11:05;;;;;;;13.95;4.55;;;16.10;99.90;;;;;;5013313;28;20025;-77
2022/11/03 09:13:31;;;;;;;17.08;5.20;;;16.20;99.90;;;;;;5025387;28;20053;-77
2022/11/03 09:15:56;;;;;;;15.45;6.00;;;16.20;99.90;;;;;;5012746;28;20053;-78
2022/11/03 09:18:22;;;;;;;13.02;5.30;;;16.10;99.90;;;;;;5022722;28;20033;-79
2022/11/03 09:20:49;;;;;;;8.73;5.30;;;16.20;99.90;;;;;;5016143;28;20413;-78
2022/11/03 09:23:14;;;;;;;12.00;4.82;;;16.10;99.90;;;;;;5019117;28;20097;-79
2022/11/03 09:25:40;;;;;;;13.70;5.10;;;16.10;99.90;;;;;;5018359;28;20029;-77
2022/11/03 09:28:06;;;;;;;12.98;5.47;;;16.10;99.90;;;;;;5031022;28;20033;-78
2022/11/03 09:30:32;;;;;;;12.10;4.88;;;16.00;99.90;;;;;;5017080;28;20034;-77
2022/11/03 09:32:57;;;;;;;14.75;5.63;;;16.00;99.90;;;;;;5020790;28;20033;-77
2022/11/03 09:35:23;;;;;;;13.25;5.88;;;16.10;99.90;;;;;;5029268;28;20034;-77
2022/11/03 09:37:49;;;;;;;13.10;5.93;;;16.20;99.90;;;;;;5016794;28;20021;-76
2022/11/03 09:40:16;;;;;;;15.70;6.38;;;16.30;99.90;;;;;;5016437;28;20025;-78
2022/11/03 09:42:43;;;;;;;11.30;5.05;;;16.50;99.90;;;;;;5025973;28;20029;-76
2022/11/03 09:45:09;;;;;;;9.32;5.50;;;16.60;99.90;;;;;;5017020;28;20121;-78
2022/11/03 09:47:41;;;;;;;10.10;5.15;;;16.70;99.90;;;;;;5023342;28;20025;-77
2022/11/03 09:50:15;;;;;;;10.43;4.63;;;16.90;99.90;;;;;;5019440;28;20034;-77
2022/11/03 09:52:41;;;;;;;9.82;4.57;;;17.20;99.90;;;;;;5019414;28;20498;-77
2022/11/03 09:55:39;;;;;;;13.73;5.50;;;17.30;99.90;;;;;;5012593;28;20026;-78
2022/11/03 09:58:14;;;;;;;16.00;4.85;;;17.30;99.90;;;;;;5037144;28;20039;-76
2022/11/03 10:00:40;;;;;;;11.38;5.10;;;17.30;99.90;;;;;;5005373;28;20022;-76
2022/11/03 10:03:10;;;;;;;11.60;5.00;;;17.40;99.90;;;;;;5032222;28;20064;-77
2022/11/03 10:05:37;;;;;;;17.70;5.43;;;17.40;99.90;;;;;;5017507;28;20105;-76
2022/11/03 10:08:07;;;;;;;16.27;5.05;;;17.40;99.90;;;;;;5027137;28;20040;-76
2022/11/03 10:10:34;;;;;;;12.65;4.90;;;17.50;99.90;;;;;;5014485;28;20029;-76
2022/11/03 10:13:00;;;;;;;16.77;5.47;;;17.50;99.90;;;;;;5025386;28;20132;-75
2022/11/03 10:15:27;;;;;;;12.50;4.63;;;17.50;99.90;;;;;;5021175;28;20076;-76
2022/11/03 10:17:53;;;;;;;11.73;4.55;;;17.50;99.90;;;;;;5012214;28;20014;-76
2022/11/03 10:20:21;;;;;;;12.15;4.70;;;17.70;99.90;;;;;;5015221;28;20018;-77
2022/11/03 10:22:51;;;;;;;12.02;4.57;;;17.70;99.90;;;;;;5029873;28;20041;-76
2022/11/03 10:25:34;;;;;;;15.15;5.32;;;17.80;99.90;;;;;;5016455;28;20070;-76
2022/11/03 10:28:14;;;;;;;10.73;4.88;;;17.90;99.90;;;;;;5023429;28;20370;-75
2022/11/03 10:30:53;;;;;;;13.55;5.75;;;17.90;99.90;;;;;;5018043;28;20034;-74
2022/11/03 10:33:28;;;;;;;8.85;4.25;;;17.90;99.90;;;;;;5018356;28;20030;-75
2022/11/03 10:35:57;;;;;;;13.65;4.40;;;17.70;99.90;;;;;;5019152;28;20039;-75
2022/11/03 10:38:34;;;;;;;10.20;4.28;;;17.60;99.90;;;;;;5042141;28;20030;-74
2022/11/03 10:41:17;;;;;;;13.75;4.50;;;17.50;99.90;;;;;;5021530;28;20099;-74
2022/11/03 10:43:58;;;;;;;12.82;4.97;;;17.40;99.90;;;;;;5023834;28;20034;-73
2022/11/03 10:46:24;;;;;;;11.18;3.95;;;17.40;99.90;;;;;;5022142;28;20034;-73
2022/11/03 10:49:11;;;;;;;10.98;5.40;;;17.30;99.90;;;;;;5020981;28;20068;-74
2022/11/03 10:51:37;;;;;;;8.85;4.18;;;17.40;99.90;;;;;;5021444;28;20494;-73
2022/11/03 10:54:09;;;;;;;17.13;5.25;;;17.40;99.90;;;;;;5015514;28;20427;-74
2022/11/03 10:56:35;;;;;;;10.70;4.20;;;17.40;99.90;;;;;;5023966;28;20029;-73
2022/11/03 10:59:01;;;;;;;8.65;4.22;;;17.60;99.90;;;;;;5031765;28;20053;-74
2022/11/03 11:01:27;;;;;;;11.25;3.95;;;17.60;99.90;;;;;;5026081;28;20567;-74
2022/11/03 11:03:54;;;;;;;16.27;4.78;;;17.70;99.90;;;;;;5031324;28;20033;-73
2022/11/03 11:06:25;;;;;;;10.43;4.50;;;17.80;99.90;;;;;;5037857;28;20030;-74
2022/11/03 11:08:53;;;;;;;10.00;4.00;;;17.90;99.90;;;;;;5027177;28;20037;-74
2022/11/03 11:11:22;;;;;;;7.90;3.95;;;17.90;99.90;;;;;;5020677;28;20527;-74
2022/11/03 11:14:35;;;;;;;8.30;4.20;;;18.00;99.90;;;;;;5025918;28;20057;-74
2022/11/03 11:17:02;;;;;;;14.85;4.93;;;18.00;99.90;;;;;;5017679;28;20030;-74
2022/11/03 11:19:29;;;;;;;9.80;4.50;;;18.10;99.90;;;;;;5013806;28;20038;-74
2022/11/03 11:21:57;;;;;;;22.73;7.25;;;18.00;99.90;;;;;;5025492;28;20112;-74
2022/11/03 11:24:41;;;;;;;11.55;5.30;;;18.00;99.90;;;;;;5015677;28;20487;-73
2022/11/03 11:27:32;;;;;;;9.75;4.57;;;18.00;99.90;;;;;;5032169;28;20406;-74
2022/11/03 11:29:59;;;;;;;13.13;4.25;;;17.90;99.90;;;;;;5015477;28;20031;-74
2022/11/03 11:32:43;;;;;;;14.25;3.85;;;17.90;99.90;;;;;;5030505;28;20088;-74
2022/11/03 11:35:29;;;;;;;16.52;4.40;;;17.90;99.90;;;;;;5017559;28;20030;-73
2022/11/03 11:38:15;;;;;;;16.55;4.55;;;17.70;99.90;;;;;;5047561;28;20046;-73
2022/11/03 11:40:51;;;;;;;13.15;4.45;;;17.60;99.90;;;;;;5010604;28;20180;-73
2022/11/03 11:43:26;;;;;;;14.57;4.75;;;17.60;99.90;;;;;;5034665;28;20403;-74
2022/11/03 11:46:32;;;;;;;9.95;4.40;;;17.60;99.90;;;;;;5016951;28;20033;-73
2022/11/03 11:49:13;;;;;;;9.50;4.53;;;17.60;99.90;;;;;;5012878;28;20057;-73
2022/11/03 11:51:39;;;;;;;6.40;4.47;;;17.50;99.90;;;;;;5013772;28;20360;-73
2022/11/03 11:54:16;;;;;;;9.90;4.10;;;17.50;99.90;;;;;;5013965;28;20076;-74
2022/11/03 11:56:45;;;;;;;9.10;4.10;;;17.50;99.90;;;;;;5014307;28;20080;-74
2022/11/03 11:59:20;;;;;;;19.67;6.10;;;17.50;99.90;;;;;;5014066;28;20037;-74
2022/11/03 12:01:49;;;;;;;12.20;4.80;;;17.40;99.90;;;;;;5017896;28;20022;-74
2022/11/03 12:04:29;;;;;;;10.15;4.57;;;17.50;99.90;;;;;;5020793;28;20026;-74
2022/11/03 12:06:56;;;;;;;12.27;5.30;;;17.50;99.90;;;;;;5015214;28;20023;-74
2022/11/03 12:09:26;;;;;;;7.53;4.85;;;17.50;99.90;;;;;;5025187;28;20273;-74
2022/11/03 12:11:58;;;;;;;11.20;4.97;;;17.50;99.90;;;;;;5023503;28;20056;-74
2022/11/03 12:14:39;;;;;;;10.68;4.88;;;17.50;99.90;;;;;;5015235;28;20418;-73
2022/11/03 12:17:17;;;;;;;13.40;4.47;;;17.50;99.90;;;;;;5027874;28;20030;-74
2022/11/03 12:19:48;;;;;;;20.65;5.43;;;17.50;99.90;;;;;;5022474;28;20013;-74
2022/11/03 12:22:23;;;;;;;;;;;17.50;99.90;;;;;;5021676;28;20024;-74
2022/11/03 12:24:48;;;;;;;16.00;5.13;;;17.60;99.90;;;;;;5018826;28;19916;-74
2022/11/03 12:27:23;;;;;;;10.18;4.70;;;17.60;99.90;;;;;;5019480;28;20378;-74
2022/11/03 12:29:50;;;;;;;11.05;5.03;;;17.80;99.90;;;;;;5015394;28;20092;-74
2022/11/03 12:32:16;;;;;;;10.25;5.25;;;17.90;99.90;;;;;;5023319;28;20029;-74
2022/11/03 12:34:42;;;;;;;8.85;4.30;;;18.00;99.90;;;;;;5022546;28;20034;-74
2022/11/03 12:37:08;;;;;;;5.60;4.30;;;18.20;99.90;;;;;;5019429;28;20029;-74
2022/11/03 12:39:34;;;;;;;11.77;4.63;;;18.20;99.90;;;;;;5027732;28;20026;-74
2022/11/03 12:42:00;;;;;;;14.63;6.28;;;18.20;99.90;;;;;;5012364;28;20117;-74
2022/11/03 12:44:26;;;;;;;11.80;5.60;;;18.20;99.90;;;;;;5019797;28;20141;-74
2022/11/03 12:46:52;;;;;;;14.30;4.68;;;18.30;99.90;;;;;;5020026;28;20038;-74
2022/11/03 12:49:18;;;;;;;13.27;4.38;;;18.40;99.90;;;;;;5017494;28;20048;-74
2022/11/03 12:51:44;;;;;;;6.78;3.35;;;18.50;99.90;;;;;;5017561;28;20043;-74
2022/11/03 12:54:10;;;;;;;9.75;4.75;;;18.60;99.90;;;;;;5016508;28;20121;-75
2022/11/03 12:56:35;;;;;;;13.40;4.90;;;18.60;99.90;;;;;;5015081;28;20028;-74
2022/11/03 12:59:01;;;;;;;10.32;4.20;;;18.70;99.90;;;;;;5026123;28;20105;-72
2022/11/03 13:01:27;;;;;;;7.22;4.28;;;18.80;99.90;;;;;;5017689;28;20022;-72
2022/11/03 13:03:53;;;;;;;13.73;5.03;;;18.90;99.90;;;;;;5033659;28;20081;-73
2022/11/03 13:06:19;;;;;;;10.25;5.07;;;18.70;99.90;;;;;;5028998;28;20026;-72
2022/11/03 13:08:45;;;;;;;12.85;4.82;;;18.80;99.90;;;;;;5027207;28;20128;-73
2022/11/03 13:13:56;;;;;;;11.43;5.10;;;18.90;99.90;;;;;;5018984;28;20056;-73
2022/11/03 13:16:22;;;;;;;8.82;4.38;;;19.00;99.90;;;;;;5014683;28;20049;-72
2022/11/03 13:18:48;;;;;;;10.55;5.05;;;18.90;99.90;;;;;;5019241;28;20022;-73
2022/11/03 13:21:14;;;;;;;16.30;5.97;;;18.90;99.90;;;;;;5018793;28;20104;-72